Terminal Aerodrome Forecast
Issued by NWS

Home | Current Version | Previous Version | Text Only | Print | Product List | Glossary On
Versions: 1 2 3 4 5 6 7 8 9 10 11 12 13
000
FTUS45 KCYS 260520
TAFRWL
TAF
KRWL 260520Z 2606/2706 21016KT P6SM SKC
     FM261600 24024G35KT P6SM BKN040
     FM270000 27015KT P6SM BKN250=

USA.gov is the U.S. government's official web portal to all federal, state and local government web resources and services.